sensor_id;sensor_type;location;lat;lon;timestamp;P1;durP1;ratioP1;P2;durP2;ratioP2
49123;SDS011;48506;48.202;16.274;2024-01-11T00:00:37;56.72;;;26.92;;
49123;SDS011;48506;48.202;16.274;2024-01-11T00:03:03;57.45;;;27.80;;
49123;SDS011;48506;48.202;16.274;2024-01-11T00:05:29;70.97;;;27.77;;
49123;SDS011;48506;48.202;16.274;2024-01-11T00:07:55;75.32;;;32.33;;
49123;SDS011;48506;48.202;16.274;2024-01-11T00:10:22;96.10;;;35.97;;
49123;SDS011;48506;48.202;16.274;2024-01-11T00:12:48;81.75;;;34.70;;
49123;SDS011;48506;48.202;16.274;2024-01-11T00:15:14;85.22;;;34.58;;
49123;SDS011;48506;48.202;16.274;2024-01-11T00:17:39;94.35;;;36.22;;
49123;SDS011;48506;48.202;16.274;2024-01-11T00:20:06;95.90;;;35.65;;
49123;SDS011;48506;48.202;16.274;2024-01-11T00:22:32;93.53;;;38.55;;
49123;SDS011;48506;48.202;16.274;2024-01-11T00:24:58;88.10;;;36.17;;
49123;SDS011;48506;48.202;16.274;2024-01-11T00:27:24;74.38;;;31.83;;
49123;SDS011;48506;48.202;16.274;2024-01-11T00:29:50;74.97;;;29.77;;
49123;SDS011;48506;48.202;16.274;2024-01-11T00:32:15;67.47;;;30.02;;
49123;SDS011;48506;48.202;16.274;2024-01-11T00:34:41;61.28;;;27.70;;
49123;SDS011;48506;48.202;16.274;2024-01-11T00:37:07;61.60;;;26.45;;
49123;SDS011;48506;48.202;16.274;2024-01-11T00:39:33;62.03;;;27.95;;
49123;SDS011;48506;48.202;16.274;2024-01-11T00:41:59;54.25;;;25.67;;
49123;SDS011;48506;48.202;16.274;2024-01-11T00:44:25;54.72;;;25.25;;
49123;SDS011;48506;48.202;16.274;2024-01-11T00:46:50;57.28;;;25.40;;
49123;SDS011;48506;48.202;16.274;2024-01-11T00:49:16;58.03;;;24.77;;
49123;SDS011;48506;48.202;16.274;2024-01-11T00:51:42;59.00;;;26.33;;
49123;SDS011;48506;48.202;16.274;2024-01-11T00:54:08;53.28;;;25.27;;
49123;SDS011;48506;48.202;16.274;2024-01-11T00:56:34;52.33;;;25.73;;
49123;SDS011;48506;48.202;16.274;2024-01-11T00:59:00;57.38;;;24.60;;
49123;SDS011;48506;48.202;16.274;2024-01-11T01:01:26;60.72;;;25.40;;
49123;SDS011;48506;48.202;16.274;2024-01-11T01:03:52;62.75;;;26.75;;
49123;SDS011;48506;48.202;16.274;2024-01-11T01:06:18;59.97;;;26.30;;
49123;SDS011;48506;48.202;16.274;2024-01-11T01:08:43;57.83;;;26.73;;
49123;SDS011;48506;48.202;16.274;2024-01-11T01:11:09;48.65;;;25.25;;
49123;SDS011;48506;48.202;16.274;2024-01-11T01:13:35;55.92;;;27.02;;
49123;SDS011;48506;48.202;16.274;2024-01-11T01:16:01;57.70;;;26.95;;
49123;SDS011;48506;48.202;16.274;2024-01-11T01:18:27;56.80;;;26.27;;
49123;SDS011;48506;48.202;16.274;2024-01-11T01:20:53;57.53;;;26.77;;
49123;SDS011;48506;48.202;16.274;2024-01-11T01:23:19;58.45;;;27.33;;
49123;SDS011;48506;48.202;16.274;2024-01-11T01:25:44;61.05;;;28.02;;
49123;SDS011;48506;48.202;16.274;2024-01-11T01:28:10;58.17;;;27.38;;
49123;SDS011;48506;48.202;16.274;2024-01-11T01:30:36;57.10;;;25.75;;
49123;SDS011;48506;48.202;16.274;2024-01-11T01:33:02;59.90;;;27.83;;
49123;SDS011;48506;48.202;16.274;2024-01-11T01:35:28;59.13;;;26.33;;
49123;SDS011;48506;48.202;16.274;2024-01-11T01:37:54;63.15;;;27.23;;
49123;SDS011;48506;48.202;16.274;2024-01-11T01:40:20;57.15;;;25.50;;
49123;SDS011;48506;48.202;16.274;2024-01-11T01:42:46;55.80;;;26.35;;
49123;SDS011;48506;48.202;16.274;2024-01-11T01:45:12;52.47;;;26.40;;
49123;SDS011;48506;48.202;16.274;2024-01-11T01:47:39;59.55;;;27.05;;
49123;SDS011;48506;48.202;16.274;2024-01-11T01:50:07;67.88;;;27.05;;
49123;SDS011;48506;48.202;16.274;2024-01-11T01:52:35;55.80;;;25.63;;
49123;SDS011;48506;48.202;16.274;2024-01-11T01:55:03;61.00;;;25.08;;
49123;SDS011;48506;48.202;16.274;2024-01-11T01:57:30;58.47;;;23.80;;
49123;SDS011;48506;48.202;16.274;2024-01-11T01:59:59;54.78;;;24.52;;
49123;SDS011;48506;48.202;16.274;2024-01-11T02:02:27;53.15;;;24.33;;
49123;SDS011;48506;48.202;16.274;2024-01-11T02:04:55;53.53;;;25.00;;
49123;SDS011;48506;48.202;16.274;2024-01-11T02:07:22;57.10;;;25.20;;
49123;SDS011;48506;48.202;16.274;2024-01-11T02:09:49;54.50;;;24.33;;
49123;SDS011;48506;48.202;16.274;2024-01-11T02:12:17;56.55;;;25.58;;
49123;SDS011;48506;48.202;16.274;2024-01-11T02:14:43;60.63;;;24.00;;
49123;SDS011;48506;48.202;16.274;2024-01-11T02:17:10;54.17;;;25.35;;
49123;SDS011;48506;48.202;16.274;2024-01-11T02:19:35;58.03;;;24.80;;
49123;SDS011;48506;48.202;16.274;2024-01-11T02:22:04;45.67;;;22.23;;
49123;SDS011;48506;48.202;16.274;2024-01-11T02:24:36;50.10;;;23.15;;
49123;SDS011;48506;48.202;16.274;2024-01-11T02:27:02;54.60;;;26.05;;
49123;SDS011;48506;48.202;16.274;2024-01-11T02:29:30;62.72;;;24.75;;
49123;SDS011;48506;48.202;16.274;2024-01-11T02:31:56;51.45;;;22.92;;
49123;SDS011;48506;48.202;16.274;2024-01-11T02:34:24;54.55;;;24.80;;
49123;SDS011;48506;48.202;16.274;2024-01-11T02:36:51;52.92;;;25.05;;
49123;SDS011;48506;48.202;16.274;2024-01-11T02:39:22;61.92;;;25.30;;
49123;SDS011;48506;48.202;16.274;2024-01-11T02:41:50;56.63;;;25.90;;
49123;SDS011;48506;48.202;16.274;2024-01-11T02:44:16;57.70;;;25.63;;
49123;SDS011;48506;48.202;16.274;2024-01-11T02:46:42;55.35;;;25.05;;
49123;SDS011;48506;48.202;16.274;2024-01-11T02:49:08;53.85;;;23.50;;
49123;SDS011;48506;48.202;16.274;2024-01-11T02:51:34;61.25;;;24.55;;
49123;SDS011;48506;48.202;16.274;2024-01-11T02:54:01;54.33;;;23.98;;
49123;SDS011;48506;48.202;16.274;2024-01-11T02:56:27;55.50;;;24.58;;
49123;SDS011;48506;48.202;16.274;2024-01-11T02:58:52;56.60;;;25.13;;
49123;SDS011;48506;48.202;16.274;2024-01-11T03:01:18;53.72;;;23.38;;
49123;SDS011;48506;48.202;16.274;2024-01-11T03:03:44;52.78;;;24.42;;
49123;SDS011;48506;48.202;16.274;2024-01-11T03:06:10;58.78;;;26.30;;
49123;SDS011;48506;48.202;16.274;2024-01-11T03:08:36;48.53;;;23.58;;
49123;SDS011;48506;48.202;16.274;2024-01-11T03:11:02;55.10;;;23.02;;
49123;SDS011;48506;48.202;16.274;2024-01-11T03:13:28;48.55;;;23.35;;
49123;SDS011;48506;48.202;16.274;2024-01-11T03:15:54;55.90;;;24.58;;
49123;SDS011;48506;48.202;16.274;2024-01-11T03:18:20;55.58;;;25.20;;
49123;SDS011;48506;48.202;16.274;2024-01-11T03:20:46;53.85;;;22.67;;
49123;SDS011;48506;48.202;16.274;2024-01-11T03:23:11;54.50;;;23.80;;
49123;SDS011;48506;48.202;16.274;2024-01-11T03:25:37;51.80;;;21.90;;
49123;SDS011;48506;48.202;16.274;2024-01-11T03:28:03;53.10;;;22.60;;
49123;SDS011;48506;48.202;16.274;2024-01-11T03:30:29;52.05;;;23.45;;
49123;SDS011;48506;48.202;16.274;2024-01-11T03:32:55;55.83;;;24.00;;
49123;SDS011;48506;48.202;16.274;2024-01-11T03:35:21;53.90;;;24.70;;
49123;SDS011;48506;48.202;16.274;2024-01-11T03:37:47;55.45;;;25.27;;
49123;SDS011;48506;48.202;16.274;2024-01-11T03:40:13;54.10;;;23.92;;
49123;SDS011;48506;48.202;16.274;2024-01-11T03:42:39;58.97;;;23.90;;
49123;SDS011;48506;48.202;16.274;2024-01-11T03:45:06;58.13;;;25.55;;
49123;SDS011;48506;48.202;16.274;2024-01-11T03:47:32;56.80;;;24.67;;
49123;SDS011;48506;48.202;16.274;2024-01-11T03:49:58;51.63;;;23.60;;
49123;SDS011;48506;48.202;16.274;2024-01-11T03:52:24;52.72;;;24.67;;
49123;SDS011;48506;48.202;16.274;2024-01-11T03:54:50;57.45;;;25.10;;
49123;SDS011;48506;48.202;16.274;2024-01-11T03:57:16;54.88;;;25.25;;
49123;SDS011;48506;48.202;16.274;2024-01-11T03:59:42;53.70;;;23.25;;
49123;SDS011;48506;48.202;16.274;2024-01-11T04:02:08;61.38;;;25.58;;
49123;SDS011;48506;48.202;16.274;2024-01-11T04:04:34;52.08;;;24.60;;
49123;SDS011;48506;48.202;16.274;2024-01-11T04:07:00;57.72;;;24.67;;
49123;SDS011;48506;48.202;16.274;2024-01-11T04:09:26;55.53;;;23.95;;
49123;SDS011;48506;48.202;16.274;2024-01-11T04:11:52;51.10;;;22.10;;
49123;SDS011;48506;48.202;16.274;2024-01-11T04:14:18;50.30;;;23.92;;
49123;SDS011;48506;48.202;16.274;2024-01-11T04:16:43;49.13;;;21.58;;
49123;SDS011;48506;48.202;16.274;2024-01-11T04:19:10;53.35;;;22.77;;
49123;SDS011;48506;48.202;16.274;2024-01-11T04:21:35;49.72;;;23.23;;
49123;SDS011;48506;48.202;16.274;2024-01-11T04:24:04;51.60;;;23.23;;
49123;SDS011;48506;48.202;16.274;2024-01-11T04:26:33;57.83;;;23.70;;
49123;SDS011;48506;48.202;16.274;2024-01-11T04:28:59;48.47;;;23.83;;
49123;SDS011;48506;48.202;16.274;2024-01-11T04:31:25;56.00;;;26.35;;
49123;SDS011;48506;48.202;16.274;2024-01-11T04:33:52;56.75;;;25.10;;
49123;SDS011;48506;48.202;16.274;2024-01-11T04:36:17;72.05;;;28.00;;
49123;SDS011;48506;48.202;16.274;2024-01-11T04:38:43;64.80;;;27.85;;
49123;SDS011;48506;48.202;16.274;2024-01-11T04:41:13;64.28;;;27.33;;
49123;SDS011;48506;48.202;16.274;2024-01-11T04:43:40;62.80;;;27.42;;
49123;SDS011;48506;48.202;16.274;2024-01-11T04:46:17;61.33;;;27.23;;
49123;SDS011;48506;48.202;16.274;2024-01-11T04:48:47;65.22;;;28.55;;
49123;SDS011;48506;48.202;16.274;2024-01-11T04:51:17;60.47;;;27.48;;
49123;SDS011;48506;48.202;16.274;2024-01-11T04:53:44;61.28;;;26.58;;
49123;SDS011;48506;48.202;16.274;2024-01-11T04:56:11;59.80;;;26.67;;
49123;SDS011;48506;48.202;16.274;2024-01-11T04:58:39;62.20;;;25.85;;
49123;SDS011;48506;48.202;16.274;2024-01-11T05:01:07;65.43;;;28.80;;
49123;SDS011;48506;48.202;16.274;2024-01-11T05:03:40;67.22;;;28.00;;
49123;SDS011;48506;48.202;16.274;2024-01-11T05:06:07;65.78;;;28.42;;
49123;SDS011;48506;48.202;16.274;2024-01-11T05:08:33;68.88;;;28.05;;
49123;SDS011;48506;48.202;16.274;2024-01-11T05:10:58;70.65;;;31.55;;
49123;SDS011;48506;48.202;16.274;2024-01-11T05:13:24;74.10;;;28.40;;
49123;SDS011;48506;48.202;16.274;2024-01-11T05:15:50;61.67;;;25.73;;
49123;SDS011;48506;48.202;16.274;2024-01-11T05:18:16;68.95;;;29.60;;
49123;SDS011;48506;48.202;16.274;2024-01-11T05:20:42;64.78;;;29.92;;
49123;SDS011;48506;48.202;16.274;2024-01-11T05:23:08;69.50;;;27.88;;
49123;SDS011;48506;48.202;16.274;2024-01-11T05:25:34;66.03;;;29.25;;
49123;SDS011;48506;48.202;16.274;2024-01-11T05:28:00;62.70;;;25.60;;
49123;SDS011;48506;48.202;16.274;2024-01-11T05:30:26;60.90;;;27.10;;
49123;SDS011;48506;48.202;16.274;2024-01-11T05:32:55;68.20;;;30.02;;
49123;SDS011;48506;48.202;16.274;2024-01-11T05:35:21;63.42;;;28.67;;
49123;SDS011;48506;48.202;16.274;2024-01-11T05:37:49;68.45;;;28.88;;
49123;SDS011;48506;48.202;16.274;2024-01-11T05:40:15;73.15;;;30.63;;
49123;SDS011;48506;48.202;16.274;2024-01-11T05:42:42;65.75;;;29.15;;
49123;SDS011;48506;48.202;16.274;2024-01-11T05:45:07;68.00;;;30.45;;
49123;SDS011;48506;48.202;16.274;2024-01-11T05:47:33;77.45;;;32.05;;
49123;SDS011;48506;48.202;16.274;2024-01-11T05:49:59;72.57;;;31.05;;
49123;SDS011;48506;48.202;16.274;2024-01-11T05:52:25;70.07;;;32.97;;
49123;SDS011;48506;48.202;16.274;2024-01-11T05:54:51;63.30;;;30.08;;
49123;SDS011;48506;48.202;16.274;2024-01-11T05:57:17;75.13;;;32.08;;
49123;SDS011;48506;48.202;16.274;2024-01-11T05:59:43;68.07;;;32.03;;
49123;SDS011;48506;48.202;16.274;2024-01-11T06:02:10;70.28;;;31.52;;
49123;SDS011;48506;48.202;16.274;2024-01-11T06:04:37;71.38;;;31.15;;
49123;SDS011;48506;48.202;16.274;2024-01-11T06:07:03;62.80;;;28.85;;
49123;SDS011;48506;48.202;16.274;2024-01-11T06:09:29;62.40;;;28.80;;
49123;SDS011;48506;48.202;16.274;2024-01-11T06:11:55;69.30;;;29.95;;
49123;SDS011;48506;48.202;16.274;2024-01-11T06:14:20;58.38;;;26.90;;
49123;SDS011;48506;48.202;16.274;2024-01-11T06:16:46;63.05;;;26.75;;
49123;SDS011;48506;48.202;16.274;2024-01-11T06:19:12;60.83;;;29.23;;
49123;SDS011;48506;48.202;16.274;2024-01-11T06:21:38;71.38;;;31.90;;
49123;SDS011;48506;48.202;16.274;2024-01-11T06:24:04;73.15;;;28.33;;
49123;SDS011;48506;48.202;16.274;2024-01-11T06:26:30;75.30;;;31.60;;
49123;SDS011;48506;48.202;16.274;2024-01-11T06:28:56;72.15;;;29.75;;
49123;SDS011;48506;48.202;16.274;2024-01-11T06:31:22;75.82;;;32.03;;
49123;SDS011;48506;48.202;16.274;2024-01-11T06:33:48;70.90;;;30.98;;
49123;SDS011;48506;48.202;16.274;2024-01-11T06:36:13;71.53;;;31.98;;
49123;SDS011;48506;48.202;16.274;2024-01-11T06:38:39;69.55;;;30.90;;
49123;SDS011;48506;48.202;16.274;2024-01-11T06:41:06;69.93;;;30.83;;
49123;SDS011;48506;48.202;16.274;2024-01-11T06:43:32;57.47;;;28.15;;
49123;SDS011;48506;48.202;16.274;2024-01-11T06:46:02;67.40;;;27.30;;
49123;SDS011;48506;48.202;16.274;2024-01-11T06:48:32;64.82;;;30.55;;
49123;SDS011;48506;48.202;16.274;2024-01-11T06:50:58;59.05;;;27.20;;
49123;SDS011;48506;48.202;16.274;2024-01-11T06:53:24;61.63;;;29.50;;
49123;SDS011;48506;48.202;16.274;2024-01-11T06:55:50;61.72;;;27.85;;
49123;SDS011;48506;48.202;16.274;2024-01-11T06:58:17;63.40;;;29.92;;
49123;SDS011;48506;48.202;16.274;2024-01-11T07:00:46;63.75;;;31.65;;
49123;SDS011;48506;48.202;16.274;2024-01-11T07:03:12;78.38;;;32.80;;
49123;SDS011;48506;48.202;16.274;2024-01-11T07:05:38;65.78;;;30.65;;
49123;SDS011;48506;48.202;16.274;2024-01-11T07:08:04;63.15;;;29.65;;
49123;SDS011;48506;48.202;16.274;2024-01-11T07:10:30;66.90;;;31.13;;
49123;SDS011;48506;48.202;16.274;2024-01-11T07:12:57;64.47;;;29.45;;
49123;SDS011;48506;48.202;16.274;2024-01-11T07:15:23;73.55;;;33.72;;
49123;SDS011;48506;48.202;16.274;2024-01-11T07:17:49;67.22;;;30.00;;
49123;SDS011;48506;48.202;16.274;2024-01-11T07:20:14;68.53;;;32.25;;
49123;SDS011;48506;48.202;16.274;2024-01-11T07:22:42;66.35;;;30.83;;
49123;SDS011;48506;48.202;16.274;2024-01-11T07:25:07;70.90;;;32.08;;
49123;SDS011;48506;48.202;16.274;2024-01-11T07:27:33;60.97;;;29.15;;
49123;SDS011;48506;48.202;16.274;2024-01-11T07:30:00;71.07;;;32.30;;
49123;SDS011;48506;48.202;16.274;2024-01-11T07:32:27;68.63;;;31.80;;
49123;SDS011;48506;48.202;16.274;2024-01-11T07:34:53;73.32;;;32.63;;
49123;SDS011;48506;48.202;16.274;2024-01-11T07:37:19;72.72;;;33.15;;
49123;SDS011;48506;48.202;16.274;2024-01-11T07:39:45;68.80;;;29.00;;
49123;SDS011;48506;48.202;16.274;2024-01-11T07:42:11;69.60;;;33.10;;
49123;SDS011;48506;48.202;16.274;2024-01-11T07:44:37;77.75;;;32.28;;
49123;SDS011;48506;48.202;16.274;2024-01-11T07:47:03;69.95;;;31.88;;
49123;SDS011;48506;48.202;16.274;2024-01-11T07:49:29;68.95;;;30.70;;
49123;SDS011;48506;48.202;16.274;2024-01-11T07:51:55;56.35;;;29.85;;
49123;SDS011;48506;48.202;16.274;2024-01-11T07:54:21;75.72;;;30.75;;
49123;SDS011;48506;48.202;16.274;2024-01-11T07:56:47;67.75;;;29.98;;
49123;SDS011;48506;48.202;16.274;2024-01-11T07:59:13;59.50;;;28.80;;
49123;SDS011;48506;48.202;16.274;2024-01-11T08:01:40;65.32;;;30.30;;
49123;SDS011;48506;48.202;16.274;2024-01-11T08:04:06;76.07;;;32.42;;
49123;SDS011;48506;48.202;16.274;2024-01-11T08:06:31;69.25;;;30.27;;
49123;SDS011;48506;48.202;16.274;2024-01-11T08:08:57;73.03;;;30.95;;
49123;SDS011;48506;48.202;16.274;2024-01-11T08:11:23;67.22;;;30.13;;
49123;SDS011;48506;48.202;16.274;2024-01-11T08:13:49;59.90;;;28.48;;
49123;SDS011;48506;48.202;16.274;2024-01-11T08:16:18;72.80;;;33.00;;
49123;SDS011;48506;48.202;16.274;2024-01-11T08:18:44;68.72;;;29.33;;
49123;SDS011;48506;48.202;16.274;2024-01-11T08:21:11;62.28;;;30.58;;
49123;SDS011;48506;48.202;16.274;2024-01-11T08:23:39;66.25;;;30.17;;
49123;SDS011;48506;48.202;16.274;2024-01-11T08:26:13;63.47;;;28.50;;
49123;SDS011;48506;48.202;16.274;2024-01-11T08:28:44;62.92;;;28.58;;
49123;SDS011;48506;48.202;16.274;2024-01-11T08:31:10;57.90;;;27.83;;
49123;SDS011;48506;48.202;16.274;2024-01-11T08:33:36;59.85;;;26.42;;
49123;SDS011;48506;48.202;16.274;2024-01-11T08:36:03;66.05;;;29.15;;
49123;SDS011;48506;48.202;16.274;2024-01-11T08:38:30;66.15;;;28.98;;
49123;SDS011;48506;48.202;16.274;2024-01-11T08:40:56;58.33;;;28.77;;
49123;SDS011;48506;48.202;16.274;2024-01-11T08:43:21;54.53;;;26.33;;
49123;SDS011;48506;48.202;16.274;2024-01-11T08:45:47;56.38;;;25.98;;
49123;SDS011;48506;48.202;16.274;2024-01-11T08:48:13;57.17;;;26.70;;
49123;SDS011;48506;48.202;16.274;2024-01-11T08:50:39;55.92;;;26.45;;
49123;SDS011;48506;48.202;16.274;2024-01-11T08:53:06;58.22;;;27.75;;
49123;SDS011;48506;48.202;16.274;2024-01-11T08:55:32;59.63;;;27.42;;
49123;SDS011;48506;48.202;16.274;2024-01-11T08:57:58;52.15;;;24.95;;
49123;SDS011;48506;48.202;16.274;2024-01-11T09:00:26;56.38;;;26.73;;
49123;SDS011;48506;48.202;16.274;2024-01-11T09:02:52;56.70;;;25.95;;
49123;SDS011;48506;48.202;16.274;2024-01-11T09:05:17;56.50;;;28.25;;
49123;SDS011;48506;48.202;16.274;2024-01-11T09:07:44;54.67;;;26.42;;
49123;SDS011;48506;48.202;16.274;2024-01-11T09:10:10;51.80;;;25.38;;
49123;SDS011;48506;48.202;16.274;2024-01-11T09:12:37;47.40;;;24.90;;
49123;SDS011;48506;48.202;16.274;2024-01-11T09:15:03;54.58;;;26.10;;
49123;SDS011;48506;48.202;16.274;2024-01-11T09:17:29;64.82;;;28.42;;
49123;SDS011;48506;48.202;16.274;2024-01-11T09:19:55;56.08;;;26.45;;
49123;SDS011;48506;48.202;16.274;2024-01-11T09:22:21;52.67;;;26.98;;
49123;SDS011;48506;48.202;16.274;2024-01-11T09:24:47;53.92;;;26.60;;
49123;SDS011;48506;48.202;16.274;2024-01-11T09:27:13;56.00;;;26.85;;
49123;SDS011;48506;48.202;16.274;2024-01-11T09:29:42;58.65;;;28.30;;
49123;SDS011;48506;48.202;16.274;2024-01-11T09:34:35;63.03;;;28.50;;
49123;SDS011;48506;48.202;16.274;2024-01-11T09:37:01;55.33;;;24.50;;
49123;SDS011;48506;48.202;16.274;2024-01-11T09:39:27;57.20;;;26.40;;
49123;SDS011;48506;48.202;16.274;2024-01-11T09:41:57;51.47;;;24.88;;
49123;SDS011;48506;48.202;16.274;2024-01-11T09:44:29;52.55;;;25.33;;
49123;SDS011;48506;48.202;16.274;2024-01-11T09:46:55;50.22;;;26.58;;
49123;SDS011;48506;48.202;16.274;2024-01-11T09:49:23;53.92;;;26.13;;
49123;SDS011;48506;48.202;16.274;2024-01-11T09:51:50;54.28;;;28.05;;
49123;SDS011;48506;48.202;16.274;2024-01-11T09:54:17;51.58;;;25.55;;
49123;SDS011;48506;48.202;16.274;2024-01-11T09:56:46;59.90;;;28.30;;
49123;SDS011;48506;48.202;16.274;2024-01-11T09:59:14;54.90;;;27.30;;
49123;SDS011;48506;48.202;16.274;2024-01-11T10:01:43;61.28;;;27.15;;
49123;SDS011;48506;48.202;16.274;2024-01-11T10:04:10;53.53;;;26.77;;
49123;SDS011;48506;48.202;16.274;2024-01-11T10:06:38;53.33;;;25.60;;
49123;SDS011;48506;48.202;16.274;2024-01-11T10:09:04;63.00;;;28.65;;
49123;SDS011;48506;48.202;16.274;2024-01-11T10:11:30;53.30;;;25.95;;
49123;SDS011;48506;48.202;16.274;2024-01-11T10:13:56;53.72;;;27.13;;
49123;SDS011;48506;48.202;16.274;2024-01-11T10:16:23;58.03;;;27.65;;
49123;SDS011;48506;48.202;16.274;2024-01-11T10:18:53;62.33;;;28.27;;
49123;SDS011;48506;48.202;16.274;2024-01-11T10:21:20;50.88;;;24.70;;
49123;SDS011;48506;48.202;16.274;2024-01-11T10:23:46;53.05;;;26.50;;
49123;SDS011;48506;48.202;16.274;2024-01-11T10:26:14;59.88;;;24.60;;
49123;SDS011;48506;48.202;16.274;2024-01-11T10:28:44;47.10;;;23.95;;
49123;SDS011;48506;48.202;16.274;2024-01-11T10:31:10;38.15;;;18.90;;
49123;SDS011;48506;48.202;16.274;2024-01-11T10:33:36;47.08;;;25.08;;
49123;SDS011;48506;48.202;16.274;2024-01-11T10:36:03;47.47;;;24.60;;
49123;SDS011;48506;48.202;16.274;2024-01-11T10:38:30;53.33;;;24.23;;
49123;SDS011;48506;48.202;16.274;2024-01-11T10:41:00;52.92;;;27.27;;
49123;SDS011;48506;48.202;16.274;2024-01-11T10:43:31;48.92;;;22.80;;
49123;SDS011;48506;48.202;16.274;2024-01-11T10:46:01;54.25;;;25.80;;
49123;SDS011;48506;48.202;16.274;2024-01-11T10:48:33;48.05;;;22.98;;
49123;SDS011;48506;48.202;16.274;2024-01-11T10:51:10;45.55;;;24.00;;
49123;SDS011;48506;48.202;16.274;2024-01-11T10:53:46;47.22;;;24.13;;
49123;SDS011;48506;48.202;16.274;2024-01-11T10:56:16;43.50;;;22.48;;
49123;SDS011;48506;48.202;16.274;2024-01-11T10:58:43;49.40;;;23.55;;
49123;SDS011;48506;48.202;16.274;2024-01-11T11:01:12;51.03;;;24.73;;
49123;SDS011;48506;48.202;16.274;2024-01-11T11:03:38;51.00;;;25.25;;
49123;SDS011;48506;48.202;16.274;2024-01-11T11:06:08;52.83;;;25.67;;
49123;SDS011;48506;48.202;16.274;2024-01-11T11:08:35;54.03;;;26.70;;
49123;SDS011;48506;48.202;16.274;2024-01-11T11:11:03;48.97;;;25.80;;
49123;SDS011;48506;48.202;16.274;2024-01-11T11:13:34;53.65;;;26.05;;
49123;SDS011;48506;48.202;16.274;2024-01-11T11:16:00;53.08;;;25.65;;
49123;SDS011;48506;48.202;16.274;2024-01-11T11:18:29;48.22;;;25.17;;
49123;SDS011;48506;48.202;16.274;2024-01-11T11:20:56;53.97;;;25.55;;
49123;SDS011;48506;48.202;16.274;2024-01-11T11:23:22;49.65;;;25.50;;
49123;SDS011;48506;48.202;16.274;2024-01-11T11:25:48;49.30;;;23.48;;
49123;SDS011;48506;48.202;16.274;2024-01-11T11:28:16;50.97;;;25.05;;
49123;SDS011;48506;48.202;16.274;2024-01-11T11:30:44;49.40;;;24.52;;
49123;SDS011;48506;48.202;16.274;2024-01-11T11:33:24;49.20;;;24.55;;
49123;SDS011;48506;48.202;16.274;2024-01-11T11:35:54;50.60;;;25.52;;
49123;SDS011;48506;48.202;16.274;2024-01-11T11:38:23;45.88;;;22.35;;
49123;SDS011;48506;48.202;16.274;2024-01-11T11:40:55;46.25;;;23.08;;
49123;SDS011;48506;48.202;16.274;2024-01-11T11:43:22;50.22;;;23.08;;
49123;SDS011;48506;48.202;16.274;2024-01-11T11:45:50;49.25;;;23.45;;
49123;SDS011;48506;48.202;16.274;2024-01-11T11:51:09;45.25;;;21.50;;
49123;SDS011;48506;48.202;16.274;2024-01-11T11:53:37;45.47;;;23.98;;
49123;SDS011;48506;48.202;16.274;2024-01-11T11:56:04;44.28;;;21.40;;
49123;SDS011;48506;48.202;16.274;2024-01-11T11:58:33;40.17;;;21.15;;
49123;SDS011;48506;48.202;16.274;2024-01-11T12:01:00;45.47;;;24.35;;
49123;SDS011;48506;48.202;16.274;2024-01-11T12:03:30;43.00;;;22.13;;
49123;SDS011;48506;48.202;16.274;2024-01-11T12:05:58;40.20;;;20.80;;
49123;SDS011;48506;48.202;16.274;2024-01-11T12:08:25;39.53;;;21.00;;
49123;SDS011;48506;48.202;16.274;2024-01-11T12:10:52;41.78;;;20.48;;
49123;SDS011;48506;48.202;16.274;2024-01-11T12:13:18;41.78;;;21.70;;
49123;SDS011;48506;48.202;16.274;2024-01-11T12:15:45;42.72;;;22.42;;
49123;SDS011;48506;48.202;16.274;2024-01-11T12:18:12;42.45;;;22.67;;
49123;SDS011;48506;48.202;16.274;2024-01-11T12:20:38;40.67;;;20.88;;
49123;SDS011;48506;48.202;16.274;2024-01-11T12:23:04;40.42;;;21.42;;
49123;SDS011;48506;48.202;16.274;2024-01-11T12:25:30;44.35;;;24.17;;
49123;SDS011;48506;48.202;16.274;2024-01-11T12:27:57;39.92;;;21.90;;
49123;SDS011;48506;48.202;16.274;2024-01-11T12:30:23;50.30;;;23.92;;
49123;SDS011;48506;48.202;16.274;2024-01-11T12:32:55;45.50;;;23.88;;
49123;SDS011;48506;48.202;16.274;2024-01-11T12:35:21;49.95;;;26.65;;
49123;SDS011;48506;48.202;16.274;2024-01-11T12:38:01;41.78;;;23.67;;
49123;SDS011;48506;48.202;16.274;2024-01-11T12:40:32;39.70;;;22.98;;
49123;SDS011;48506;48.202;16.274;2024-01-11T12:43:05;41.88;;;21.90;;
49123;SDS011;48506;48.202;16.274;2024-01-11T12:45:35;40.00;;;22.27;;
49123;SDS011;48506;48.202;16.274;2024-01-11T12:48:02;40.95;;;22.27;;
49123;SDS011;48506;48.202;16.274;2024-01-11T12:50:29;47.15;;;23.92;;
49123;SDS011;48506;48.202;16.274;2024-01-11T12:53:11;46.15;;;24.27;;
49123;SDS011;48506;48.202;16.274;2024-01-11T12:55:45;43.33;;;22.95;;
49123;SDS011;48506;48.202;16.274;2024-01-11T12:58:12;37.22;;;21.40;;
49123;SDS011;48506;48.202;16.274;2024-01-11T13:00:44;40.15;;;21.83;;
49123;SDS011;48506;48.202;16.274;2024-01-11T13:03:10;43.17;;;23.00;;
49123;SDS011;48506;48.202;16.274;2024-01-11T13:05:36;41.47;;;22.88;;
49123;SDS011;48506;48.202;16.274;2024-01-11T13:08:07;43.08;;;23.33;;
49123;SDS011;48506;48.202;16.274;2024-01-11T13:10:34;40.30;;;23.80;;
49123;SDS011;48506;48.202;16.274;2024-01-11T13:13:01;50.45;;;23.33;;
49123;SDS011;48506;48.202;16.274;2024-01-11T13:15:28;39.05;;;20.77;;
49123;SDS011;48506;48.202;16.274;2024-01-11T13:18:01;36.58;;;20.58;;
49123;SDS011;48506;48.202;16.274;2024-01-11T13:20:27;40.92;;;22.88;;
49123;SDS011;48506;48.202;16.274;2024-01-11T13:23:13;41.05;;;22.92;;
49123;SDS011;48506;48.202;16.274;2024-01-11T13:25:45;42.08;;;22.50;;
49123;SDS011;48506;48.202;16.274;2024-01-11T13:28:13;38.08;;;20.60;;
49123;SDS011;48506;48.202;16.274;2024-01-11T13:30:39;38.13;;;22.05;;
49123;SDS011;48506;48.202;16.274;2024-01-11T13:33:06;38.38;;;20.00;;
49123;SDS011;48506;48.202;16.274;2024-01-11T13:35:34;38.85;;;21.65;;
49123;SDS011;48506;48.202;16.274;2024-01-11T13:38:01;43.15;;;23.15;;
49123;SDS011;48506;48.202;16.274;2024-01-11T13:40:28;47.40;;;24.98;;
49123;SDS011;48506;48.202;16.274;2024-01-11T13:42:55;38.85;;;22.42;;
49123;SDS011;48506;48.202;16.274;2024-01-11T13:45:24;39.33;;;22.57;;
49123;SDS011;48506;48.202;16.274;2024-01-11T13:47:55;43.33;;;23.50;;
49123;SDS011;48506;48.202;16.274;2024-01-11T13:50:24;41.40;;;22.60;;
49123;SDS011;48506;48.202;16.274;2024-01-11T13:52:50;32.45;;;18.23;;
49123;SDS011;48506;48.202;16.274;2024-01-11T13:55:16;41.22;;;21.75;;
49123;SDS011;48506;48.202;16.274;2024-01-11T13:57:47;35.85;;;21.08;;
49123;SDS011;48506;48.202;16.274;2024-01-11T14:00:14;56.38;;;23.08;;
49123;SDS011;48506;48.202;16.274;2024-01-11T14:02:42;38.25;;;21.80;;
49123;SDS011;48506;48.202;16.274;2024-01-11T14:05:08;38.28;;;22.20;;
49123;SDS011;48506;48.202;16.274;2024-01-11T14:07:41;40.08;;;23.27;;
49123;SDS011;48506;48.202;16.274;2024-01-11T14:10:10;40.58;;;21.83;;
49123;SDS011;48506;48.202;16.274;2024-01-11T14:12:37;46.63;;;23.75;;